Time;durP1;ratioP1;P1;durP2;ratioP2;P2;SDS_P1;SDS_P2;PMS_P1;PMS_P2;Temp;Humidity;BMP_temperature;BMP_pressure;BME280_temperature;BME280_humidity;BME280_pressure;Samples;Min_cycle;Max_cycle;Signal;HPM_P1;HPM_P2
2023/08/10 00:02:03;;;;;;;3.92;1.90;;;;;;;17.64;63.92;97603.84;4962214;28;20399;-77
2023/08/10 00:04:29;;;;;;;3.35;1.67;;;;;;;17.69;63.70;97607.19;4965366;28;20033;-76
2023/08/10 00:06:55;;;;;;;2.80;1.70;;;;;;;17.70;64.00;97600.88;4969378;28;20081;-77
2023/08/10 00:09:20;;;;;;;1.77;1.67;;;;;;;17.71;64.44;97605.06;4955005;28;20446;-76
2023/08/10 00:11:46;;;;;;;2.03;1.30;;;;;;;17.59;64.63;97602.03;4955244;28;20041;-77
2023/08/10 00:14:11;;;;;;;1.83;1.73;;;;;;;17.54;65.19;97602.84;4952151;28;20093;-76
2023/08/10 00:16:37;;;;;;;1.60;1.50;;;;;;;17.46;65.40;97594.78;4952198;28;20093;-76
2023/08/10 00:19:02;;;;;;;1.88;1.77;;;;;;;17.39;65.79;97598.53;4948099;28;20042;-76
2023/08/10 00:21:28;;;;;;;1.83;1.67;;;;;;;17.33;66.51;97599.63;4934422;28;20419;-76
2023/08/10 00:23:56;;;;;;;2.88;1.85;;;;;;;17.32;65.54;97598.06;4937880;28;20117;-77
2023/08/10 00:26:24;;;;;;;2.72;1.77;;;;;;;17.27;65.73;97595.47;4951335;28;20039;-75
2023/08/10 00:28:50;;;;;;;3.38;1.83;;;;;;;17.28;65.48;97604.94;4948115;29;20078;-76
2023/08/10 00:31:16;;;;;;;1.52;1.42;;;;;;;17.24;65.26;97601.31;4948926;28;20065;-76
2023/08/10 00:33:41;;;;;;;2.60;1.52;;;;;;;17.26;65.19;97604.44;4941503;28;20034;-77
2023/08/10 00:36:07;;;;;;;3.05;1.90;;;;;;;17.25;65.26;97597.59;4950830;28;20039;-76
2023/08/10 00:38:34;;;;;;;2.72;1.95;;;;;;;17.29;64.87;97600.47;4931912;29;20430;-76
2023/08/10 00:41:00;;;;;;;2.95;1.65;;;;;;;17.20;65.41;97605.53;4930595;28;20066;-79
2023/08/10 00:43:26;;;;;;;2.15;1.65;;;;;;;17.20;65.24;97603.72;4971771;28;20081;-79
2023/08/10 00:45:51;;;;;;;3.58;1.90;;;;;;;17.09;65.52;97604.06;4961797;28;20043;-79
2023/08/10 00:48:17;;;;;;;2.40;2.00;;;;;;;17.01;65.87;97602.81;4953303;28;20030;-76
2023/08/10 00:50:43;;;;;;;1.70;1.60;;;;;;;16.94;66.38;97597.84;4976321;28;20039;-77
2023/08/10 00:53:08;;;;;;;1.80;1.70;;;;;;;16.90;66.61;97602.09;4976153;28;20066;-76
2023/08/10 00:55:34;;;;;;;2.75;1.83;;;;;;;16.88;66.32;97614.75;4950871;28;20507;-77
2023/08/10 00:57:59;;;;;;;2.80;1.70;;;;;;;16.85;66.02;97610.03;4953911;28;20058;-76
2023/08/10 01:00:26;;;;;;;4.43;1.75;;;;;;;16.84;65.98;97598.75;4970979;28;20495;-85
2023/08/10 01:05:22;;;;;;;1.73;1.63;;;;;;;16.75;66.77;97594.28;4965744;28;20047;-77
2023/08/10 01:07:55;;;;;;;2.20;2.00;;;;;;;16.78;65.88;97601.66;4940044;28;20066;-76
2023/08/10 01:10:47;;;;;;;2.13;1.70;;;;;;;16.76;66.26;97603.75;4970507;28;20388;-76
2023/08/10 01:13:20;;;;;;;3.28;1.70;;;;;;;16.69;66.47;97600.63;4952724;28;20033;-77
2023/08/10 01:15:55;;;;;;;1.67;1.50;;;;;;;16.64;66.23;97602.25;4965647;28;20035;-76
2023/08/10 01:18:27;;;;;;;2.85;1.67;;;;;;;16.63;66.65;97611.19;4954126;28;20042;-77
2023/08/10 01:20:59;;;;;;;1.73;1.60;;;;;;;16.61;66.74;97608.06;4972054;28;20042;-76
2023/08/10 01:23:39;;;;;;;2.30;2.08;;;;;;;16.60;66.64;97614.34;4952569;28;20152;-77
2023/08/10 01:26:05;;;;;;;2.25;1.95;;;;;;;16.53;66.95;97618.34;4954307;28;20108;-77
2023/08/10 01:28:32;;;;;;;2.00;1.90;;;;;;;16.53;66.82;97602.59;4954020;28;20026;-76
2023/08/10 01:30:58;;;;;;;1.90;1.70;;;;;;;16.46;67.02;97595.78;4954538;28;20493;-76
2023/08/10 01:33:23;;;;;;;1.52;1.42;;;;;;;16.35;67.26;97591.66;4968790;28;20034;-77
2023/08/10 01:35:48;;;;;;;2.03;1.55;;;;;;;16.43;67.48;97600.78;4935133;29;20054;-77
2023/08/10 01:38:14;;;;;;;2.85;1.90;;;;;;;16.39;67.54;97602.41;4965225;28;20058;-77
2023/08/10 01:40:39;;;;;;;2.78;1.73;;;;;;;16.27;67.11;97598.25;4968425;28;20121;-77
2023/08/10 01:43:05;;;;;;;2.05;1.65;;;;;;;16.20;67.12;97589.09;4965825;28;20409;-76
2023/08/10 01:45:30;;;;;;;2.25;1.77;;;;;;;16.10;67.32;97585.44;4969727;28;20035;-77
2023/08/10 01:48:19;;;;;;;3.05;1.90;;;;;;;16.23;67.35;97594.59;4950628;28;20704;-78
2023/08/10 01:50:46;;;;;;;1.60;1.50;;;;;;;16.10;67.53;97595.19;4949837;28;20027;-77
2023/08/10 01:53:15;;;;;;;2.00;1.60;;;;;;;15.99;67.49;97593.63;4946841;28;20038;-79
2023/08/10 01:55:41;;;;;;;3.70;1.80;;;;;;;15.97;67.31;97606.25;4967138;28;20406;-78
2023/08/10 01:58:07;;;;;;;2.25;1.48;;;;;;;15.93;67.88;97602.59;4969842;28;20047;-77
2023/08/10 02:00:37;;;;;;;1.90;1.65;;;;;;;15.89;67.62;97611.00;4949543;28;20042;-77
2023/08/10 02:03:06;;;;;;;1.85;1.67;;;;;;;15.82;68.23;97610.50;4953601;28;20038;-77
2023/08/10 02:05:31;;;;;;;2.38;1.80;;;;;;;15.76;68.35;97605.53;4944298;28;20042;-79
2023/08/10 02:07:57;;;;;;;1.52;1.40;;;;;;;15.81;67.78;97614.19;4952672;28;20046;-77
2023/08/10 02:10:22;;;;;;;1.90;1.70;;;;;;;15.81;67.51;97608.94;4936926;28;20091;-77
2023/08/10 02:53:46;;;;;;;2.42;2.10;;;;;;;15.32;68.72;97610.31;4962376;28;20545;-76
2023/08/10 02:56:11;;;;;;;1.88;1.70;;;;;;;15.32;68.61;97612.94;4965618;28;20070;-76
2023/08/10 02:58:37;;;;;;;2.45;1.90;;;;;;;15.28;69.07;97621.59;4936213;28;20031;-75
2023/08/10 03:01:06;;;;;;;2.03;1.77;;;;;;;15.32;68.75;97620.81;4947559;28;20492;-76
2023/08/10 03:03:33;;;;;;;2.63;1.80;;;;;;;15.22;69.08;97617.41;4951046;28;20043;-79
2023/08/10 03:05:59;;;;;;;2.10;2.00;;;;;;;15.24;68.66;97610.84;4919388;29;20039;-76
2023/08/10 03:08:24;;;;;;;3.58;1.80;;;;;;;15.27;69.00;97620.03;4945939;28;20039;-76
2023/08/10 03:10:50;;;;;;;2.83;1.88;;;;;;;15.21;69.03;97615.84;4948705;28;20039;-76
2023/08/10 03:13:24;;;;;;;2.08;1.75;;;;;;;15.15;70.19;97615.06;4949356;28;20034;-76
2023/08/10 03:15:50;;;;;;;2.38;2.15;;;;;;;15.13;69.98;97619.75;4953360;28;20089;-77
2023/08/10 03:18:16;;;;;;;2.58;2.38;;;;;;;15.11;69.40;97622.66;4952272;28;20046;-77
2023/08/10 03:20:41;;;;;;;2.33;2.00;;;;;;;15.12;69.99;97624.22;4969191;28;20077;-77
2023/08/10 03:23:06;;;;;;;2.42;2.17;;;;;;;15.12;70.21;97631.31;4933223;28;20031;-77
2023/08/10 03:25:32;;;;;;;2.65;2.20;;;;;;;15.11;69.51;97627.91;4968220;28;20093;-77
2023/08/10 03:27:57;;;;;;;3.83;1.88;;;;;;;15.09;69.12;97619.50;4951291;28;20043;-77
2023/08/10 03:30:23;;;;;;;1.67;1.58;;;;;;;15.06;69.79;97619.22;4951373;28;20614;-76
2023/08/10 03:32:48;;;;;;;2.05;1.85;;;;;;;15.02;69.88;97618.97;4968404;28;20039;-83
2023/08/10 03:35:14;;;;;;;2.03;1.92;;;;;;;14.96;69.61;97620.03;4967223;28;20074;-83
2023/08/10 03:37:40;;;;;;;2.20;2.00;;;;;;;14.94;69.67;97611.63;4952801;28;20058;-83
2023/08/10 03:40:07;;;;;;;2.50;2.30;;;;;;;14.87;69.94;97604.00;4936143;28;20057;-83
2023/08/10 03:42:33;;;;;;;2.30;2.10;;;;;;;14.84;70.36;97604.56;4952433;28;20475;-83
2023/08/10 03:44:58;;;;;;;1.75;1.55;;;;;;;14.78;69.77;97619.47;4950427;28;20086;-83
2023/08/10 03:47:23;;;;;;;2.10;1.90;;;;;;;14.69;69.92;97610.56;4936302;28;20030;-83
2023/08/10 03:49:49;;;;;;;3.83;1.90;;;;;;;14.70;69.54;97609.53;4951924;28;20030;-82
2023/08/10 03:52:15;;;;;;;2.25;2.05;;;;;;;14.66;70.76;97618.94;4969872;28;20046;-82
2023/08/10 03:54:40;;;;;;;2.95;2.22;;;;;;;14.64;69.84;97615.00;4952293;28;20082;-83
2023/08/10 03:57:09;;;;;;;2.33;2.13;;;;;;;14.50;70.21;97628.56;4967313;28;20038;-83
2023/08/10 03:59:34;;;;;;;2.53;1.98;;;;;;;14.48;71.27;97630.66;4947723;29;20415;-83
2023/08/10 04:01:59;;;;;;;2.05;1.90;;;;;;;14.46;70.17;97629.34;4981558;28;20050;-82
2023/08/10 04:04:25;;;;;;;2.33;2.15;;;;;;;14.42;70.31;97627.22;4951364;28;20034;-80
2023/08/10 04:06:50;;;;;;;2.67;2.08;;;;;;;14.43;70.93;97625.41;4967058;28;20030;-82
2023/08/10 04:09:16;;;;;;;2.42;1.90;;;;;;;14.42;71.13;97626.44;4950860;28;20034;-82
2023/08/10 04:11:41;;;;;;;2.95;2.05;;;;;;;14.50;70.15;97633.81;4952399;28;20515;-83
2023/08/10 04:14:06;;;;;;;2.88;2.40;;;;;;;14.49;70.81;97637.47;4944221;28;20106;-83
2023/08/10 04:16:32;;;;;;;2.28;1.95;;;;;;;14.45;70.77;97633.03;4952430;28;20050;-83
2023/08/10 04:18:57;;;;;;;2.53;2.20;;;;;;;14.34;70.03;97638.22;4952591;28;20101;-82
2023/08/10 04:21:23;;;;;;;3.55;2.08;;;;;;;14.23;70.70;97649.69;4936286;28;20043;-83
2023/08/10 04:23:48;;;;;;;2.67;1.95;;;;;;;14.11;71.08;97646.50;4951517;28;20019;-83
2023/08/10 04:26:13;;;;;;;3.05;2.42;;;;;;;14.13;70.42;97650.44;4955294;28;20044;-82
2023/08/10 04:28:39;;;;;;;2.00;1.70;;;;;;;14.15;71.45;97653.56;4972236;28;20398;-83
2023/08/10 04:31:04;;;;;;;2.25;2.05;;;;;;;14.13;71.25;97652.28;4953665;28;20035;-83
2023/08/10 04:33:31;;;;;;;2.45;2.05;;;;;;;14.16;70.53;97660.41;4937865;28;20478;-83
2023/08/10 04:35:57;;;;;;;4.38;1.80;;;;;;;14.22;71.32;97658.59;4955734;28;20256;-82
2023/08/10 04:38:22;;;;;;;2.95;2.25;;;;;;;14.15;71.24;97664.06;4953115;28;20035;-84
2023/08/10 04:40:48;;;;;;;3.10;2.08;;;;;;;14.15;70.65;97664.06;4954413;28;20042;-82
2023/08/10 04:43:13;;;;;;;2.17;1.90;;;;;;;14.13;71.23;97665.38;4953219;28;20354;-80
2023/08/10 04:45:38;;;;;;;1.95;1.77;;;;;;;14.14;71.35;97667.72;4952635;28;20027;-83
2023/08/10 04:48:04;;;;;;;1.60;1.50;;;;;;;14.14;71.39;97677.44;4935195;28;20062;-82
2023/08/10 04:50:30;;;;;;;2.88;2.10;;;;;;;14.15;70.75;97668.50;4951859;28;20117;-83
2023/08/10 04:52:55;;;;;;;1.90;1.77;;;;;;;14.14;71.20;97670.34;4969919;28;20104;-83
2023/08/10 04:55:20;;;;;;;2.15;2.00;;;;;;;14.14;71.49;97666.94;4952478;28;20089;-83
2023/08/10 04:57:52;;;;;;;4.40;2.25;;;;;;;14.17;71.85;97666.41;4954586;28;20066;-83
2023/08/10 05:00:18;;;;;;;2.45;2.03;;;;;;;14.11;71.66;97670.84;4983609;28;20038;-83
2023/08/10 05:02:43;;;;;;;3.67;2.50;;;;;;;14.17;72.05;97669.03;4938457;28;20522;-83
2023/08/10 05:05:09;;;;;;;4.65;2.85;;;;;;;14.23;71.77;97673.28;4951978;28;20082;-83
2023/08/10 05:07:35;;;;;;;2.90;2.50;;;;;;;14.27;71.70;97682.19;4952448;28;20083;-83
2023/08/10 05:10:04;;;;;;;3.70;2.85;;;;;;;14.36;71.24;97680.66;4969609;28;20031;-85
2023/08/10 05:12:29;;;;;;;2.55;2.33;;;;;;;14.36;72.54;97674.63;4961888;28;20063;-83
2023/08/10 05:14:54;;;;;;;2.95;2.65;;;;;;;14.43;72.59;97677.81;4949420;28;20392;-81
2023/08/10 05:17:20;;;;;;;2.72;2.53;;;;;;;14.55;72.28;97688.06;4951404;28;20045;-83
2023/08/10 05:19:45;;;;;;;2.80;2.22;;;;;;;14.60;71.83;97685.50;4955877;28;20062;-83
2023/08/10 05:22:10;;;;;;;2.75;2.35;;;;;;;14.65;71.73;97682.91;4967575;28;20107;-82
2023/08/10 05:24:36;;;;;;;2.42;2.05;;;;;;;14.75;72.34;97688.16;4952565;28;20394;-84
2023/08/10 05:27:02;;;;;;;3.42;2.40;;;;;;;14.81;72.41;97681.09;4951232;28;20047;-83
2023/08/10 05:29:28;;;;;;;2.60;2.20;;;;;;;14.95;71.40;97692.66;4945869;28;20054;-83
2023/08/10 05:31:53;;;;;;;2.90;2.70;;;;;;;15.11;71.51;97690.06;4953851;28;20406;-82
2023/08/10 05:34:19;;;;;;;2.63;2.40;;;;;;;15.20;70.90;97695.56;4968733;28;20038;-83
2023/08/10 05:36:44;;;;;;;2.20;2.00;;;;;;;15.28;70.46;97690.59;4954048;28;20380;-83
2023/08/10 05:39:09;;;;;;;2.25;1.92;;;;;;;15.35;70.52;97695.56;4949774;28;20482;-82
2023/08/10 05:41:35;;;;;;;2.40;2.20;;;;;;;15.39;70.64;97695.84;4950421;28;20121;-82
2023/08/10 05:44:00;;;;;;;1.98;1.85;;;;;;;15.45;71.33;97695.56;4966548;28;20030;-81
2023/08/10 05:46:25;;;;;;;2.72;2.00;;;;;;;15.55;71.10;97695.56;4950684;29;20313;-82
2023/08/10 05:48:51;;;;;;;2.70;2.50;;;;;;;15.69;70.61;97692.41;4954786;28;20392;-82
2023/08/10 05:51:16;;;;;;;2.83;2.63;;;;;;;15.77;70.93;97691.91;4938624;28;20035;-83
2023/08/10 05:53:44;;;;;;;2.70;2.10;;;;;;;15.74;70.50;97684.53;4955105;28;20413;-82
2023/08/10 05:56:10;;;;;;;2.85;2.25;;;;;;;15.79;70.39;97689.81;4969568;28;20042;-82
2023/08/10 05:58:35;;;;;;;3.05;2.40;;;;;;;15.83;70.19;97684.81;4939369;28;20053;-83
2023/08/10 06:01:01;;;;;;;2.65;2.40;;;;;;;15.90;70.55;97696.63;4954737;28;20584;-80
2023/08/10 06:03:27;;;;;;;3.05;2.83;;;;;;;16.09;70.87;97688.97;4962416;28;20113;-83
2023/08/10 06:05:53;;;;;;;3.05;2.47;;;;;;;16.28;70.25;97702.31;4939013;28;20039;-82
2023/08/10 06:08:19;;;;;;;3.17;2.92;;;;;;;16.54;69.85;97698.81;4954305;28;20490;-82
2023/08/10 06:10:44;;;;;;;3.42;2.35;;;;;;;16.71;68.80;97693.16;4972177;28;20062;-82
2023/08/10 06:13:09;;;;;;;2.13;1.95;;;;;;;16.87;68.33;97697.34;4951918;28;20391;-83
2023/08/10 06:15:35;;;;;;;2.50;2.30;;;;;;;17.11;68.24;97696.66;4938471;28;20434;-83
2023/08/10 06:18:00;;;;;;;2.35;2.15;;;;;;;17.19;67.62;97688.19;4954485;28;20038;-83
2023/08/10 06:20:26;;;;;;;3.80;2.38;;;;;;;17.36;67.48;97703.59;4954258;28;20035;-83
2023/08/10 06:22:53;;;;;;;2.47;2.28;;;;;;;17.48;66.60;97711.94;4970680;28;20041;-82
2023/08/10 06:25:19;;;;;;;2.58;2.38;;;;;;;17.52;65.21;97706.88;4954330;28;20130;-82
2023/08/10 06:27:47;;;;;;;2.95;2.28;;;;;;;17.63;65.05;97711.00;4954802;28;20137;-83
2023/08/10 06:30:13;;;;;;;2.72;2.15;;;;;;;17.68;64.90;97715.44;4970268;28;20402;-82
2023/08/10 06:32:39;;;;;;;3.28;2.40;;;;;;;17.86;63.65;97724.50;4938128;28;20038;-83
2023/08/10 06:35:05;;;;;;;2.53;2.30;;;;;;;17.98;64.09;97727.59;4970227;28;20094;-83
2023/08/10 06:37:32;;;;;;;2.25;1.52;;;;;;;18.20;63.64;97716.56;4954185;28;20035;-83
2023/08/10 06:39:58;;;;;;;2.67;2.00;;;;;;;18.46;62.39;97713.63;4935170;29;20394;-83
2023/08/10 06:42:23;;;;;;;2.08;1.88;;;;;;;18.65;60.86;97722.34;4951514;28;20043;-83
2023/08/10 06:44:48;;;;;;;4.93;2.38;;;;;;;18.85;62.03;97729.25;4970580;28;20031;-85
2023/08/10 06:47:14;;;;;;;3.25;2.10;;;;;;;18.96;60.96;97729.13;4953181;28;20388;-84
2023/08/10 06:49:39;;;;;;;2.65;1.88;;;;;;;18.99;59.31;97720.63;4953545;28;20133;-83
2023/08/10 06:52:05;;;;;;;2.15;1.70;;;;;;;19.25;59.23;97735.00;4937849;28;20042;-84
2023/08/10 06:54:31;;;;;;;2.40;1.92;;;;;;;19.32;59.78;97736.53;4953386;28;20038;-84
2023/08/10 06:56:56;;;;;;;2.03;1.75;;;;;;;19.48;58.73;97737.84;4970027;28;20530;-84
2023/08/10 06:59:22;;;;;;;2.35;1.85;;;;;;;19.64;58.27;97725.97;4953847;28;20043;-83
2023/08/10 07:01:47;;;;;;;3.40;1.98;;;;;;;19.91;58.28;97726.34;4937940;28;20490;-76
2023/08/10 07:04:13;;;;;;;2.08;1.88;;;;;;;20.05;57.03;97724.50;4968796;28;20554;-76
2023/08/10 07:06:38;;;;;;;3.97;2.20;;;;;;;20.20;56.73;97736.66;4937515;28;20061;-77
2023/08/10 07:09:04;;;;;;;2.15;1.73;;;;;;;20.34;56.85;97718.94;4969362;28;20039;-76
2023/08/10 07:11:30;;;;;;;1.73;1.63;;;;;;;20.46;56.59;97718.44;4969557;28;20034;-78
2023/08/10 07:13:55;;;;;;;2.00;1.90;;;;;;;20.86;56.06;97726.63;4970374;28;20038;-76
2023/08/10 07:16:21;;;;;;;3.20;1.83;;;;;;;20.95;55.14;97729.34;4968968;28;20534;-79
2023/08/10 07:18:46;;;;;;;2.58;1.80;;;;;;;21.13;54.39;97727.66;4969499;28;20038;-77
2023/08/10 07:21:12;;;;;;;1.98;1.80;;;;;;;21.28;52.87;97731.81;4953250;28;20062;-79
2023/08/10 07:23:37;;;;;;;2.75;2.17;;;;;;;21.37;51.45;97718.63;4952894;28;20034;-76
2023/08/10 07:26:02;;;;;;;1.73;1.63;;;;;;;21.60;52.17;97728.16;4953088;28;20119;-78
2023/08/10 07:28:28;;;;;;;1.75;1.65;;;;;;;21.56;51.13;97724.56;4952902;28;20070;-77
2023/08/10 07:30:53;;;;;;;1.55;1.45;;;;;;;21.69;50.17;97728.19;4969294;28;20041;-78
2023/08/10 07:33:19;;;;;;;2.65;1.98;;;;;;;21.79;50.15;97733.25;4968384;28;20490;-76
2023/08/10 07:35:46;;;;;;;2.10;1.90;;;;;;;21.96;49.84;97718.53;4953209;28;20142;-77
2023/08/10 07:38:12;;;;;;;1.92;1.83;;;;;;;22.07;49.24;97733.06;4969158;28;20101;-77
2023/08/10 07:40:38;;;;;;;1.65;1.55;;;;;;;22.24;48.17;97722.53;4969092;28;20038;-77
2023/08/10 07:43:03;;;;;;;1.77;1.67;;;;;;;22.40;49.07;97725.59;4936306;28;20031;-77
2023/08/10 07:45:29;;;;;;;1.95;1.73;;;;;;;22.59;48.95;97720.00;4967304;28;20541;-79
2023/08/10 07:47:54;;;;;;;1.83;1.60;;;;;;;22.72;47.68;97728.13;4946152;29;20047;-78
2023/08/10 07:50:20;;;;;;;3.15;1.80;;;;;;;22.57;47.56;97716.13;4952256;28;20038;-78
2023/08/10 07:52:45;;;;;;;1.83;1.73;;;;;;;22.84;47.23;97715.03;4952338;28;20086;-79
2023/08/10 07:55:13;;;;;;;1.92;1.83;;;;;;;23.00;46.60;97712.72;4934862;28;20086;-78
2023/08/10 07:57:39;;;;;;;1.70;1.60;;;;;;;23.11;46.36;97702.59;4936885;28;20031;-79
2023/08/10 08:00:05;;;;;;;2.00;1.90;;;;;;;23.34;45.84;97719.16;4949672;28;20035;-78
2023/08/10 08:02:32;;;;;;;1.77;1.67;;;;;;;23.45;45.46;97722.25;4952264;28;20439;-79
2023/08/10 08:04:57;;;;;;;1.70;1.60;;;;;;;23.40;45.40;97720.53;4952432;28;20404;-79
2023/08/10 08:07:25;;;;;;;2.05;1.95;;;;;;;23.63;45.93;97722.97;4936548;28;20031;-79
2023/08/10 08:09:51;;;;;;;2.00;1.80;;;;;;;23.74;45.64;97713.59;4968384;28;20412;-78
2023/08/10 08:12:16;;;;;;;2.22;1.90;;;;;;;23.74;44.43;97701.06;4952359;28;20097;-78
2023/08/10 08:14:43;;;;;;;1.90;1.80;;;;;;;23.88;45.12;97708.09;4952360;28;20530;-79
2023/08/10 08:17:09;;;;;;;2.03;1.83;;;;;;;24.02;45.55;97708.66;4952704;28;20462;-78
2023/08/10 08:19:36;;;;;;;2.13;1.90;;;;;;;24.17;43.55;97694.03;4952519;28;20062;-78
2023/08/10 08:22:02;;;;;;;1.73;1.63;;;;;;;24.59;42.94;97707.47;4952503;28;20101;-79
2023/08/10 08:24:27;;;;;;;2.20;2.00;;;;;;;24.83;41.69;97701.50;4968309;28;20506;-86
2023/08/10 08:26:53;;;;;;;2.00;1.90;;;;;;;24.89;43.63;97696.00;4952587;28;20093;-86
2023/08/10 08:29:19;;;;;;;1.95;1.85;;;;;;;25.24;41.59;97701.78;4936252;28;20031;-85
2023/08/10 08:31:44;;;;;;;1.92;1.83;;;;;;;25.39;40.47;97703.09;4952659;28;20046;-88
2023/08/10 08:34:10;;;;;;;2.10;1.90;;;;;;;25.35;40.69;97694.22;4936320;28;20034;-87
2023/08/10 08:36:35;;;;;;;2.10;2.00;;;;;;;25.26;40.73;97694.28;4968525;28;20351;-87
2023/08/10 08:39:01;;;;;;;2.15;1.90;;;;;;;25.44;41.62;97699.44;4952660;28;20049;-85
2023/08/10 08:41:30;;;;;;;2.13;2.00;;;;;;;25.33;40.93;97699.09;4968460;28;20042;-86
2023/08/10 08:43:56;;;;;;;1.80;1.70;;;;;;;25.66;38.96;97696.38;4935184;28;20508;-86
2023/08/10 08:46:25;;;;;;;2.20;1.80;;;;;;;25.73;40.23;97701.19;4946753;28;20074;-87
2023/08/10 08:48:51;;;;;;;1.80;1.70;;;;;;;25.54;41.02;97707.81;4936639;28;20397;-86
2023/08/10 08:51:16;;;;;;;2.55;1.63;;;;;;;25.79;41.00;97699.88;4968583;28;20043;-87
2023/08/10 08:53:43;;;;;;;1.90;1.80;;;;;;;26.02;38.54;97694.91;4952318;28;20081;-85
2023/08/10 08:56:08;;;;;;;1.80;1.70;;;;;;;26.20;38.28;97695.47;4966444;28;20030;-86
2023/08/10 08:58:33;;;;;;;1.88;1.77;;;;;;;26.40;38.32;97695.69;4949127;29;20502;-85
2023/08/10 09:01:00;;;;;;;2.95;1.92;;;;;;;26.33;38.66;97694.34;4964987;28;20076;-87
2023/08/10 09:03:26;;;;;;;1.80;1.70;;;;;;;26.01;38.84;97695.25;4969171;28;20039;-86
2023/08/10 09:05:52;;;;;;;2.00;1.90;;;;;;;26.08;37.82;97692.78;4952184;28;20035;-87
2023/08/10 09:08:19;;;;;;;2.00;1.90;;;;;;;26.32;36.66;97678.66;4968235;28;20394;-87
2023/08/10 09:10:46;;;;;;;2.35;1.80;;;;;;;26.16;38.22;97678.56;4937779;28;20038;-86
2023/08/10 09:13:21;;;;;;;2.10;1.90;;;;;;;25.98;38.68;97676.13;4955435;28;20143;-86
2023/08/10 09:16:04;;;;;;;2.15;1.95;;;;;;;26.35;38.18;97665.41;4956001;28;20030;-86
2023/08/10 09:18:33;;;;;;;2.38;2.00;;;;;;;26.67;38.51;97670.94;4955766;28;20040;-86
2023/08/10 09:21:16;;;;;;;2.05;1.95;;;;;;;26.93;35.96;97664.41;4939942;28;20037;-86
2023/08/10 09:23:46;;;;;;;1.90;1.80;;;;;;;26.90;37.07;97654.41;4955263;28;20027;-84
2023/08/10 09:26:12;;;;;;;2.10;2.00;;;;;;;27.12;37.13;97660.34;4955524;28;20069;-84
2023/08/10 09:28:38;;;;;;;1.83;1.73;;;;;;;27.00;36.46;97658.47;4971527;28;20054;-86
2023/08/10 09:31:05;;;;;;;2.20;1.77;;;;;;;27.16;36.36;97666.53;4955152;28;20034;-84
2023/08/10 09:33:32;;;;;;;2.13;1.95;;;;;;;27.23;36.40;97656.81;4955092;28;20038;-85
2023/08/10 09:36:05;;;;;;;2.10;1.90;;;;;;;27.54;36.51;97667.91;4955659;28;20035;-86
2023/08/10 09:38:30;;;;;;;2.00;1.90;;;;;;;27.82;33.20;97665.94;4965401;28;20466;-86
2023/08/10 09:41:25;;;;;;;2.15;1.95;;;;;;;27.64;34.39;97665.53;4955504;28;20042;-85
2023/08/10 09:43:51;;;;;;;1.80;1.70;;;;;;;27.98;34.09;97657.97;4951268;28;20074;-86
2023/08/10 09:46:17;;;;;;;2.22;2.08;;;;;;;27.93;35.23;97662.78;4933190;28;20067;-86
2023/08/10 09:48:50;;;;;;;2.25;2.05;;;;;;;28.21;35.74;97651.94;4939347;28;20313;-86
2023/08/10 09:51:15;;;;;;;2.13;1.92;;;;;;;28.06;34.64;97655.44;4954938;28;20043;-86
2023/08/10 09:53:41;;;;;;;2.00;1.90;;;;;;;28.24;34.18;97658.50;4954774;28;20034;-87
2023/08/10 09:56:07;;;;;;;2.38;2.10;;;;;;;27.78;36.70;97662.41;4953138;28;20042;-86
2023/08/10 09:58:34;;;;;;;2.10;1.90;;;;;;;28.07;34.69;97665.78;4954934;28;20034;-85
2023/08/10 10:00:59;;;;;;;2.00;1.90;;;;;;;27.80;36.54;97662.84;4971130;28;20500;-87
2023/08/10 10:03:29;;;;;;;1.83;1.73;;;;;;;27.98;35.91;97657.16;4953887;28;20113;-85
2023/08/10 10:05:55;;;;;;;2.10;1.95;;;;;;;28.19;35.02;97657.66;4971101;28;20030;-85
2023/08/10 10:08:22;;;;;;;2.05;1.95;;;;;;;28.32;34.48;97650.28;4938452;28;20129;-85
2023/08/10 10:10:48;;;;;;;2.08;1.90;;;;;;;28.73;32.57;97666.84;4955849;28;20046;-87
2023/08/10 10:13:15;;;;;;;2.13;1.92;;;;;;;28.89;32.16;97655.28;4954427;28;20035;-88
2023/08/10 10:15:44;;;;;;;2.40;2.20;;;;;;;28.91;31.79;97664.53;4971466;28;20446;-86
2023/08/10 10:18:11;;;;;;;2.00;1.90;;;;;;;28.89;32.94;97655.28;4971033;28;20039;-85
2023/08/10 10:20:42;;;;;;;2.17;1.98;;;;;;;28.86;31.64;97646.06;4955456;28;20089;-88
2023/08/10 10:23:15;;;;;;;2.03;1.77;;;;;;;28.49;34.00;97654.47;4953236;28;20042;-86
2023/08/10 10:25:55;;;;;;;1.95;1.73;;;;;;;28.52;34.93;97653.75;4938501;28;20030;-85
2023/08/10 10:28:21;;;;;;;1.83;1.73;;;;;;;28.95;33.17;97648.50;4970485;28;20050;-85
2023/08/10 10:31:05;;;;;;;2.45;1.77;;;;;;;29.04;33.94;97642.94;4970453;28;20446;-85
2023/08/10 10:33:34;;;;;;;2.22;2.03;;;;;;;29.06;32.84;97641.44;4971601;28;20034;-84
2023/08/10 10:36:11;;;;;;;2.00;1.70;;;;;;;29.30;32.72;97637.69;4951138;28;20043;-78
2023/08/10 10:38:38;;;;;;;2.10;1.85;;;;;;;28.91;31.86;97639.63;4970129;28;20034;-80
2023/08/10 10:41:14;;;;;;;1.92;1.83;;;;;;;29.49;31.39;97630.69;4954500;28;20039;-79
2023/08/10 10:43:39;;;;;;;2.00;1.90;;;;;;;29.84;29.71;97627.84;4951563;28;20031;-78
2023/08/10 10:46:04;;;;;;;2.30;2.10;;;;;;;30.01;31.16;97628.47;4954017;28;20097;-78
2023/08/10 10:48:35;;;;;;;2.15;2.05;;;;;;;30.03;31.14;97624.28;4950276;28;20046;-78
2023/08/10 10:51:04;;;;;;;1.83;1.70;;;;;;;29.79;31.65;97603.22;4950748;28;20050;-79
2023/08/10 10:53:30;;;;;;;1.70;1.60;;;;;;;29.74;31.92;97615.00;4961987;28;20070;-78
2023/08/10 10:55:55;;;;;;;2.20;2.00;;;;;;;29.59;33.10;97616.69;4952524;28;20073;-78
2023/08/10 10:58:21;;;;;;;2.20;2.10;;;;;;;29.38;32.91;97611.75;4969422;28;20046;-79
2023/08/10 11:00:47;;;;;;;2.03;1.92;;;;;;;29.32;33.15;97605.13;4953785;28;20491;-79
2023/08/10 11:03:13;;;;;;;2.10;1.98;;;;;;;29.47;32.38;97603.47;4936727;28;20038;-79
2023/08/10 11:05:39;;;;;;;2.20;2.10;;;;;;;29.71;32.56;97594.25;4953471;28;20046;-78
2023/08/10 11:08:08;;;;;;;2.33;2.15;;;;;;;30.28;30.85;97605.06;4969663;28;20372;-78
2023/08/10 11:10:36;;;;;;;2.10;2.00;;;;;;;29.84;31.51;97601.00;4937861;28;20039;-78
2023/08/10 11:13:03;;;;;;;2.25;2.15;;;;;;;30.13;30.24;97584.53;4937084;28;20549;-80
2023/08/10 11:15:29;;;;;;;2.03;1.92;;;;;;;29.68;31.82;97586.91;4953632;28;20380;-77
2023/08/10 11:17:54;;;;;;;2.15;1.95;;;;;;;29.36;31.92;97573.03;4953431;28;20089;-78
2023/08/10 11:20:21;;;;;;;1.90;1.80;;;;;;;29.60;32.10;97591.41;4953237;28;20047;-78
2023/08/10 11:22:47;;;;;;;2.08;1.98;;;;;;;29.46;33.36;97597.34;4952835;28;20426;-79
2023/08/10 11:25:18;;;;;;;2.08;1.98;;;;;;;29.52;32.70;97598.56;4953376;28;20108;-79
2023/08/10 11:27:45;;;;;;;2.13;2.00;;;;;;;29.28;32.34;97591.66;4953507;28;20034;-79
2023/08/10 11:30:13;;;;;;;2.08;1.98;;;;;;;29.42;29.10;97590.34;4969448;28;20594;-78
2023/08/10 11:32:40;;;;;;;2.10;1.90;;;;;;;28.84;31.26;97592.03;4952509;28;20089;-79
2023/08/10 11:35:07;;;;;;;2.40;2.20;;;;;;;28.70;31.48;97594.41;4937298;28;20124;-79
2023/08/10 11:37:35;;;;;;;1.98;1.88;;;;;;;28.96;30.96;97585.72;4953699;28;20046;-78
2023/08/10 11:40:11;;;;;;;2.15;2.05;;;;;;;28.75;34.35;97592.25;4952768;28;20042;-79
2023/08/10 11:42:42;;;;;;;2.55;2.35;;;;;;;28.78;31.73;97590.75;4953303;28;20046;-79
2023/08/10 11:45:13;;;;;;;2.08;1.92;;;;;;;28.77;32.72;97592.66;4969418;28;20247;-85
2023/08/10 11:47:40;;;;;;;1.83;1.73;;;;;;;28.47;32.31;97583.63;4931926;28;20038;-84
2023/08/10 11:50:08;;;;;;;2.30;2.05;;;;;;;28.20;31.39;97597.59;4952627;28;20038;-87
2023/08/10 11:52:34;;;;;;;1.88;1.77;;;;;;;28.26;30.49;97598.13;4968832;28;20560;-86
2023/08/10 11:55:00;;;;;;;2.80;2.47;;;;;;;28.60;30.73;97589.63;4951248;28;20123;-85
2023/08/10 11:57:36;;;;;;;1.88;1.77;;;;;;;28.31;31.65;97599.72;4952534;28;20487;-84
2023/08/10 12:00:18;;;;;;;2.05;1.95;;;;;;;28.98;32.97;97590.72;4953227;28;20055;-84
2023/08/10 12:03:13;;;;;;;2.00;1.90;;;;;;;29.32;31.78;97599.75;4968626;28;20070;-85
2023/08/10 12:05:43;;;;;;;1.85;1.75;;;;;;;29.38;31.80;97597.56;4925412;29;20125;-84
2023/08/10 12:08:11;;;;;;;2.33;2.10;;;;;;;29.60;29.29;97604.06;4932309;28;20031;-85
2023/08/10 12:10:51;;;;;;;2.33;1.88;;;;;;;30.03;30.38;97602.81;4952833;28;20100;-83
2023/08/10 12:13:18;;;;;;;2.38;2.17;;;;;;;30.91;29.76;97605.41;4936142;28;20082;-85
2023/08/10 12:15:49;;;;;;;2.45;2.25;;;;;;;31.07;27.66;97599.84;4953110;28;20695;-87
2023/08/10 12:18:19;;;;;;;2.08;1.88;;;;;;;31.17;27.21;97608.03;4952801;28;20498;-86